Terminal Aerodrome Forecast
Issued by NWS Cleveland, OH

Home | Current Version | Previous Version | Graphics & Text | Print | Product List | Glossary On
Versions: 1 2 3 4 5 6 7 8 9 10 11 12 13
128
FTUS41 KCLE 241140
TAFCAK
TAF
KCAK 241140Z 2412/2512 02006KT P6SM SCT009 OVC015
     FM241400 04008KT P6SM BKN025
     FM241600 04010KT P6SM BKN035
     FM241800 04008KT P6SM SCT040
     FM242300 06004KT P6SM SKC=

USA.gov is the U.S. government's official web portal to all federal, state and local government web resources and services.